Tolleson, Arizona
Current Conditions -  °F | °C
As of 10:47 AM on Monday 24 Nov 2014 (Local Time) from KGYR Reporting Station
Few Clouds Few Clouds  
Wind Chill: 63°   Ceiling: Unl
Heat Index: 63°   Visibility: 10mi
Dew Point: 16°   Wind: 5mph
Humidity: 16%   Direction: NA
Pressure: 30.26"   Gusts: NA
Location:  33.45°N, 112.26°W
Report Text: KGYR 241747Z VRB04KT 10SM FEW200 17/M09 A3026
Loading
Personal Weather Stations






























Interactive Weather Map New forecast layout! Learn more

10-Day Weather Forecast

Advertisements
Track Severe Weather on mobile